Aérodrome :
LOGIN :

S'inscrire | Disclaimer

   EN    FR    IT 

 










Légende :    VFR   VFR Marginal   IFR   IFR Intensif   IFR Très Intensif
Visi : 
Plafond : 
>= 8 km
>= 3000ft
5 à 8 km
1000 à 3000 ft
1500m à 5 km
500 à 1000 ft
800 à 1500m
200 à 500 ft
< 800m
< 200 ft
Symboles :   Orages  Brouillard  Fortes neiges  Fortes précipitations  Vent > 20 kt
SIGMETs :   Divers  Orages  Givrage  Turbulence  Onde Orograph.  Cendres Volcan.






- Altitude de l'aérodrome : 295 ft
- Code IATA : ORN


DAOO - Es senia - Oran

DERNIER METAR :
  • 200830Z 22006KT 9999 BKN026 22/15 Q1011

METARs EXPIRÉS :
  • 200800Z 22002KT 9999 BKN026 20/15 Q1011
  • 200730Z 22003KT 9999 BKN026 19/15 Q1011
  • 200700Z 09002KT 9999 BKN026 18/15 Q1010
  • 200630Z 05004KT 9999 BKN026 19/14 Q1010
  • 200600Z 23004KT 9999 SCT026 18/16 Q1010

TAF TAF DAOO
Valide du 20 à 06h jusqu'au 21 à 06h UTC


200500Z 2006/2106 VRB02KT 9999 SCT026
BECMG 2008/2010 28010KT
TEMPO 2016/2024 RA
PROB40
TEMPO 2018/2024 TSRA FEW026CB BKN026



MET'MAP, la Météo Aéronautique d'un coup d'oeil ! - Copyright ORBIFLY Décembre 2007 - Disclaimer

ORBIFLY MET'MAP TEAM :

Programmation & Développement : Alexandra Zaïnal
Conception & Développement : Baudouin d'Aumeries
Co-Programmation & Développement : Marc-Olivier Méhu
Soutien technique & logistique : Manuel Goepfert

Contact : metmap@orbifly.com




SOURCES & CREDITS :

   NOAA